Terminal Aerodrome Forecast
Issued by NWS Shreveport, LA

Home | Current Version | Previous Version | Text Only | Print | Product List | Glossary On
Versions: 1 2 3 4 5 6 7 8 9 10 11 12 13 14 15 16 17 18 19 20 21 22
000
FTUS44 KSHV 271142
TAFMLU
TAF
KMLU 271142Z 2712/2812 VRB03KT P6SM VCTS BKN060CB OVC070
      TEMPO 2712/2715 4SM -TSRA BR BKN045CB
     FM271500 18008KT P6SM BKN050 OVC090
     FM271700 20008KT P6SM SCT050
     FM280000 VRB04KT P6SM BKN060=

USA.gov is the U.S. government's official web portal to all federal, state and local government web resources and services.